createdAt,value
2017-07-27T00:01:10.505Z,17.52
2017-07-27T00:01:51.523Z,17.39
2017-07-27T00:03:19.632Z,17.34
2017-07-27T00:04:00.530Z,17.34
2017-07-27T00:04:41.467Z,17.41
2017-07-27T00:05:22.383Z,17.36
2017-07-27T00:06:03.356Z,17.51
2017-07-27T00:06:44.295Z,17.46
2017-07-27T00:07:25.222Z,17.36
2017-07-27T00:08:06.166Z,17.36
2017-07-27T00:08:47.082Z,17.36
2017-07-27T00:09:27.977Z,17.36
2017-07-27T00:10:08.916Z,17.38
2017-07-27T00:10:49.839Z,17.3
2017-07-27T00:11:30.814Z,17.36
2017-07-27T00:12:11.712Z,17.38
2017-07-27T00:12:52.660Z,17.26
2017-07-27T00:13:33.582Z,17.29
2017-07-27T00:14:14.544Z,17.26
2017-07-27T00:14:55.454Z,17.31
2017-07-27T00:16:49.160Z,17.26
2017-07-27T00:17:30.033Z,17.31
2017-07-27T00:18:10.912Z,17.3
2017-07-27T00:18:51.882Z,17.3
2017-07-27T00:19:32.781Z,17.39
2017-07-27T00:20:13.695Z,17.31
2017-07-27T00:20:54.648Z,17.34
2017-07-27T00:21:35.596Z,17.31
2017-07-27T00:22:16.559Z,17.3
2017-07-27T00:22:57.486Z,17.23
2017-07-27T00:24:30.823Z,17.27
2017-07-27T00:25:11.742Z,17.27
2017-07-27T00:25:52.675Z,17.22
2017-07-27T00:26:33.648Z,17.3
2017-07-27T00:27:51.493Z,17.23
2017-07-27T00:28:32.401Z,17.23
2017-07-27T00:29:13.303Z,17.23
2017-07-27T00:29:54.210Z,17.24
2017-07-27T00:31:47.885Z,17.29
2017-07-27T00:32:28.795Z,17.15
2017-07-27T00:33:09.771Z,17.24
2017-07-27T00:33:50.731Z,17.23
2017-07-27T00:34:31.607Z,17.29
2017-07-27T00:35:12.533Z,17.26
2017-07-27T00:35:53.529Z,17.3
2017-07-27T00:37:26.849Z,17.2
2017-07-27T00:38:07.818Z,17.3
2017-07-27T00:38:48.772Z,17.29
2017-07-27T00:39:29.683Z,17.29
2017-07-27T00:40:10.576Z,17.27
2017-07-27T00:40:51.529Z,17.24
2017-07-27T00:41:32.476Z,17.33
2017-07-27T00:42:13.453Z,17.3
2017-07-27T00:42:54.368Z,17.26
2017-07-27T00:44:32.857Z,17.3
2017-07-27T00:46:26.557Z,17.34
2017-07-27T00:47:07.491Z,17.27
2017-07-27T00:47:48.403Z,17.33
2017-07-27T00:49:21.688Z,17.38
2017-07-27T00:50:02.624Z,17.36
2017-07-27T00:50:43.533Z,17.23
2017-07-27T00:51:24.479Z,17.29
2017-07-27T00:52:05.456Z,17.38
2017-07-27T00:52:46.387Z,17.33
2017-07-27T00:53:27.399Z,17.34
2017-07-27T00:54:08.305Z,17.38
2017-07-27T00:54:49.219Z,17.31
2017-07-27T00:55:30.103Z,17.31
2017-07-27T00:56:11.046Z,17.46
2017-07-27T00:56:51.950Z,17.38
2017-07-27T00:57:32.882Z,17.34
2017-07-27T00:59:06.204Z,17.34
2017-07-27T00:59:47.128Z,17.33
2017-07-27T01:00:28.068Z,17.38
2017-07-27T01:01:08.997Z,17.29
2017-07-27T01:01:49.930Z,17.34
2017-07-27T01:02:30.859Z,17.3
2017-07-27T01:03:11.803Z,17.36
2017-07-27T01:03:52.727Z,17.3
2017-07-27T01:05:10.640Z,17.41
2017-07-27T01:05:51.598Z,17.34
2017-07-27T01:07:45.275Z,17.38
2017-07-27T01:08:26.220Z,17.41
2017-07-27T01:09:07.153Z,17.3
2017-07-27T01:09:48.116Z,17.31
2017-07-27T01:10:29.053Z,17.3
2017-07-27T01:11:09.990Z,17.36
2017-07-27T01:11:50.947Z,17.3
2017-07-27T01:12:31.905Z,17.33
2017-07-27T01:13:12.854Z,17.39
2017-07-27T01:13:53.778Z,17.31
2017-07-27T01:14:34.746Z,17.38
2017-07-27T01:15:15.701Z,17.39
2017-07-27T01:15:56.655Z,17.36
2017-07-27T01:17:24.842Z,17.3
2017-07-27T01:18:05.822Z,17.34
2017-07-27T01:19:39.116Z,17.38
2017-07-27T01:20:20.101Z,17.34
2017-07-27T01:21:01.038Z,17.34
2017-07-27T01:21:41.987Z,17.41
2017-07-27T01:22:22.936Z,17.41
2017-07-27T01:23:03.912Z,17.33
2017-07-27T01:23:44.816Z,17.39
2017-07-27T01:24:25.748Z,17.41
2017-07-27T01:25:06.642Z,17.39
2017-07-27T01:25:47.594Z,17.33
2017-07-27T01:26:28.468Z,17.42
2017-07-27T01:27:09.367Z,17.3
2017-07-27T01:27:50.281Z,17.44
2017-07-27T01:28:31.211Z,17.31
2017-07-27T01:29:12.141Z,17.31
2017-07-27T01:29:53.057Z,17.31
2017-07-27T01:30:34.024Z,17.36
2017-07-27T01:31:14.965Z,17.26
2017-07-27T01:31:55.877Z,17.27
2017-07-27T01:32:36.870Z,17.27
2017-07-27T01:33:17.844Z,17.33
2017-07-27T01:33:58.724Z,17.33
2017-07-27T01:34:39.612Z,17.29
2017-07-27T01:35:20.547Z,17.33
2017-07-27T01:36:01.476Z,17.27
2017-07-27T01:36:42.381Z,17.3
2017-07-27T01:37:23.305Z,17.29
2017-07-27T01:38:04.299Z,17.36
2017-07-27T01:38:45.234Z,17.27
2017-07-27T01:39:26.116Z,17.26
2017-07-27T01:40:07.036Z,17.27
2017-07-27T01:40:47.931Z,17.27
2017-07-27T01:41:28.869Z,17.24
2017-07-27T01:42:09.849Z,17.27
2017-07-27T01:42:50.789Z,17.34
2017-07-27T01:43:31.764Z,17.23
2017-07-27T01:44:12.661Z,17.33
2017-07-27T01:44:53.686Z,17.27
2017-07-27T01:45:34.598Z,17.3
2017-07-27T01:46:15.543Z,17.29
2017-07-27T01:46:56.478Z,17.29
2017-07-27T01:48:29.735Z,17.27
2017-07-27T01:49:10.661Z,17.3
2017-07-27T01:49:51.585Z,17.27
2017-07-27T01:50:32.499Z,17.23
2017-07-27T01:51:13.421Z,17.34
2017-07-27T01:51:54.343Z,17.29
2017-07-27T01:52:35.248Z,17.31
2017-07-27T01:53:16.201Z,17.2
2017-07-27T01:53:57.189Z,17.26
2017-07-27T01:54:38.165Z,17.24
2017-07-27T01:55:19.147Z,17.24
2017-07-27T01:56:00.074Z,17.33
2017-07-27T01:56:41.021Z,17.23
2017-07-27T01:57:21.930Z,17.27
2017-07-27T01:58:02.873Z,17.31
2017-07-27T01:58:43.818Z,17.33
2017-07-27T01:59:24.776Z,17.26
2017-07-27T02:00:05.788Z,17.38
2017-07-27T02:00:46.720Z,17.34
2017-07-27T02:01:27.632Z,17.22
2017-07-27T02:02:08.593Z,17.26
2017-07-27T02:04:02.314Z,17.26
2017-07-27T02:04:43.252Z,17.23
2017-07-27T02:05:24.150Z,17.16
2017-07-27T02:07:02.578Z,17.24
2017-07-27T02:07:43.514Z,17.23
2017-07-27T02:08:24.472Z,17.27
2017-07-27T02:09:05.368Z,17.23
2017-07-27T02:09:46.347Z,17.24
2017-07-27T02:11:19.664Z,17.22
2017-07-27T02:12:00.620Z,17.22
2017-07-27T02:12:41.528Z,17.24
2017-07-27T02:13:22.480Z,17.26
2017-07-27T02:14:03.397Z,17.2
2017-07-27T02:14:44.358Z,17.2
2017-07-27T02:15:25.306Z,17.23
2017-07-27T02:16:06.223Z,17.3
2017-07-27T02:16:47.161Z,17.24
2017-07-27T02:17:28.126Z,17.27
2017-07-27T02:18:09.064Z,17.19
2017-07-27T02:18:49.956Z,17.3
2017-07-27T02:19:30.919Z,17.27
2017-07-27T02:20:11.834Z,17.24
2017-07-27T02:20:52.778Z,17.29
2017-07-27T02:21:33.736Z,17.29
2017-07-27T02:22:14.676Z,17.36
2017-07-27T02:22:55.573Z,17.3
2017-07-27T02:23:36.527Z,17.29
2017-07-27T02:24:17.410Z,17.31
2017-07-27T02:24:58.380Z,17.16
2017-07-27T02:25:39.316Z,17.2
2017-07-27T02:26:20.280Z,17.23
2017-07-27T02:27:01.166Z,17.26
2017-07-27T02:27:42.096Z,17.3
2017-07-27T02:28:23.078Z,17.3
2017-07-27T02:29:03.977Z,17.27
2017-07-27T02:29:44.915Z,17.19
2017-07-27T02:30:25.832Z,17.27
2017-07-27T02:31:59.121Z,17.22
2017-07-27T02:32:40.089Z,17.26
2017-07-27T02:33:21.029Z,17.29
2017-07-27T02:35:00.479Z,17.19
2017-07-27T02:35:41.432Z,17.22
2017-07-27T02:36:22.401Z,17.19
2017-07-27T02:37:03.360Z,17.15
2017-07-27T02:37:44.309Z,17.29
2017-07-27T02:38:25.291Z,17.24
2017-07-27T02:39:06.255Z,17.2
2017-07-27T02:39:47.231Z,17.24
2017-07-27T02:40:28.162Z,17.15
2017-07-27T02:41:56.324Z,17.24
2017-07-27T02:42:37.285Z,17.22
2017-07-27T02:43:18.185Z,17.22
2017-07-27T02:43:59.124Z,17.29
2017-07-27T02:44:40.091Z,17.29
2017-07-27T02:45:21.080Z,17.24
2017-07-27T02:46:02.058Z,17.24
2017-07-27T02:46:42.955Z,17.23
2017-07-27T02:47:23.888Z,17.23
2017-07-27T02:48:04.802Z,17.27
2017-07-27T02:48:45.710Z,17.22
2017-07-27T02:49:26.685Z,17.23
2017-07-27T02:50:07.567Z,17.3
2017-07-27T02:50:48.495Z,17.24
2017-07-27T02:52:06.401Z,17.27
2017-07-27T02:53:45.814Z,17.24
2017-07-27T02:54:26.729Z,17.24
2017-07-27T02:55:07.638Z,17.29
2017-07-27T02:55:48.588Z,17.26
2017-07-27T02:56:29.550Z,17.24
2017-07-27T02:57:10.530Z,17.23
2017-07-27T02:57:51.450Z,17.23
2017-07-27T02:58:32.362Z,17.22
2017-07-27T02:59:13.259Z,17.26
2017-07-27T02:59:54.188Z,17.23
2017-07-27T03:00:35.136Z,17.26
2017-07-27T03:01:16.019Z,17.26
2017-07-27T03:01:56.909Z,17.24
2017-07-27T03:02:37.842Z,17.15
2017-07-27T03:03:18.817Z,17.27
2017-07-27T03:03:59.743Z,17.26
2017-07-27T03:04:40.690Z,17.2
2017-07-27T03:05:21.643Z,17.27
2017-07-27T03:06:02.589Z,17.29
2017-07-27T03:06:43.513Z,17.23
2017-07-27T03:07:24.487Z,17.34
2017-07-27T03:08:05.484Z,17.3
2017-07-27T03:08:46.453Z,17.27
2017-07-27T03:09:27.436Z,17.3
2017-07-27T03:10:08.364Z,17.15
2017-07-27T03:10:49.299Z,17.19
2017-07-27T03:11:30.205Z,17.2
2017-07-27T03:12:11.134Z,17.29
2017-07-27T03:12:52.065Z,17.19
2017-07-27T03:13:33.017Z,17.19
2017-07-27T03:14:13.963Z,17.27
2017-07-27T03:14:54.914Z,17.22
2017-07-27T03:15:35.870Z,17.22
2017-07-27T03:16:16.824Z,17.16
2017-07-27T03:16:57.808Z,17.19
2017-07-27T03:17:38.782Z,17.12
2017-07-27T03:18:19.768Z,17.16
2017-07-27T03:19:00.725Z,17.2
2017-07-27T03:19:41.708Z,17.27
2017-07-27T03:20:22.682Z,17.2
2017-07-27T03:21:03.623Z,17.27
2017-07-27T03:21:44.538Z,17.29
2017-07-27T03:22:25.476Z,17.27
2017-07-27T03:23:06.470Z,17.24
2017-07-27T03:23:47.401Z,17.29
2017-07-27T03:24:28.344Z,17.29
2017-07-27T03:25:09.289Z,17.22
2017-07-27T03:25:50.199Z,17.19
2017-07-27T03:26:31.089Z,17.2
2017-07-27T03:27:11.994Z,17.22
2017-07-27T03:27:52.842Z,17.27
2017-07-27T03:28:33.732Z,17.16
2017-07-27T03:29:14.634Z,17.26
2017-07-27T03:29:55.517Z,17.26
2017-07-27T03:30:36.405Z,17.27
2017-07-27T03:31:17.301Z,17.23
2017-07-27T03:31:58.183Z,17.33
2017-07-27T03:32:39.084Z,17.23
2017-07-27T03:33:19.969Z,17.24
2017-07-27T03:34:00.894Z,17.27
2017-07-27T03:34:41.763Z,17.2
2017-07-27T03:35:22.668Z,17.27
2017-07-27T03:36:03.556Z,17.19
2017-07-27T03:36:44.453Z,17.15
2017-07-27T03:37:25.339Z,17.19
2017-07-27T03:38:06.226Z,17.15
2017-07-27T03:38:47.120Z,17.16
2017-07-27T03:39:28.016Z,17.22
2017-07-27T03:40:08.904Z,17.2
2017-07-27T03:40:49.812Z,17.2
2017-07-27T03:41:30.696Z,17.26
2017-07-27T03:42:11.585Z,17.3
2017-07-27T03:42:52.479Z,17.26
2017-07-27T03:43:33.371Z,17.27
2017-07-27T03:44:14.259Z,17.23
2017-07-27T03:44:55.152Z,17.15
2017-07-27T03:45:36.039Z,17.19
2017-07-27T03:46:16.933Z,17.2
2017-07-27T03:46:57.826Z,17.29
2017-07-27T03:47:38.706Z,17.19
2017-07-27T03:48:19.595Z,17.16
2017-07-27T03:49:00.502Z,17.19
2017-07-27T03:49:41.372Z,17.19
2017-07-27T03:50:22.274Z,17.16
2017-07-27T03:51:03.169Z,17.15
2017-07-27T03:51:44.062Z,17.16
2017-07-27T03:52:24.949Z,17.16
2017-07-27T03:53:05.847Z,17.27
2017-07-27T03:53:46.736Z,17.16
2017-07-27T03:54:27.631Z,17.11
2017-07-27T03:55:08.515Z,17.11
2017-07-27T03:55:49.401Z,17.09
2017-07-27T03:56:30.304Z,17.06
2017-07-27T03:57:11.205Z,17.12
2017-07-27T03:57:52.083Z,17.08
2017-07-27T03:58:32.998Z,17.11
2017-07-27T03:59:13.880Z,17.12
2017-07-27T03:59:54.788Z,17.04
2017-07-27T04:00:35.654Z,17.14
2017-07-27T04:01:16.554Z,17.15
2017-07-27T04:01:57.458Z,17.11
2017-07-27T04:02:38.364Z,17.11
2017-07-27T04:03:19.226Z,17.09
2017-07-27T04:04:00.100Z,17.08
2017-07-27T04:04:40.985Z,17.05
2017-07-27T04:05:21.881Z,17.06
2017-07-27T04:06:02.755Z,17.11
2017-07-27T04:06:43.631Z,17.11
2017-07-27T04:07:24.520Z,17.04
2017-07-27T04:08:05.427Z,17.06
2017-07-27T04:08:46.317Z,17.04
2017-07-27T04:09:27.200Z,16.96
2017-07-27T04:10:08.105Z,16.97
2017-07-27T04:10:48.984Z,16.91
2017-07-27T04:11:29.873Z,17.01
2017-07-27T04:12:10.783Z,16.93
2017-07-27T04:12:51.661Z,17.02
2017-07-27T04:13:32.543Z,16.9
2017-07-27T04:14:13.434Z,16.91
2017-07-27T04:14:54.328Z,16.89
2017-07-27T04:15:35.202Z,16.99
2017-07-27T04:16:16.156Z,16.9
2017-07-27T04:16:57.046Z,16.89
2017-07-27T04:17:37.951Z,16.91
2017-07-27T04:18:18.849Z,16.97
2017-07-27T04:18:59.746Z,16.93
2017-07-27T04:19:40.629Z,17.02
2017-07-27T04:20:21.502Z,16.86
2017-07-27T04:21:02.388Z,16.87
2017-07-27T04:21:43.288Z,16.97
2017-07-27T04:22:24.198Z,16.97
2017-07-27T04:23:05.086Z,16.86
2017-07-27T04:23:45.975Z,16.89
2017-07-27T04:24:26.863Z,16.86
2017-07-27T04:25:07.733Z,16.96
2017-07-27T04:25:48.631Z,16.84
2017-07-27T04:26:29.509Z,16.93
2017-07-27T04:27:10.389Z,16.86
2017-07-27T04:27:51.269Z,16.91
2017-07-27T04:28:32.163Z,16.89
2017-07-27T04:29:13.051Z,16.86
2017-07-27T04:29:53.927Z,16.93
2017-07-27T04:30:34.806Z,16.94
2017-07-27T04:31:15.691Z,16.97
2017-07-27T04:31:56.588Z,16.96
2017-07-27T04:32:37.477Z,16.9
2017-07-27T04:33:18.384Z,16.9
2017-07-27T04:33:59.277Z,16.97
2017-07-27T04:34:40.236Z,17.05
2017-07-27T04:35:21.121Z,16.94
2017-07-27T04:36:02.025Z,16.94
2017-07-27T04:36:42.897Z,17.02
2017-07-27T04:37:23.785Z,16.94
2017-07-27T04:38:04.669Z,17.06
2017-07-27T04:38:45.565Z,17.06
2017-07-27T04:39:26.449Z,17.09
2017-07-27T04:40:07.328Z,17.11
2017-07-27T04:40:48.205Z,17.08
2017-07-27T04:41:29.103Z,17.16
2017-07-27T04:42:09.991Z,17.2
2017-07-27T04:42:50.875Z,17.14
2017-07-27T04:43:31.772Z,17.24
2017-07-27T04:44:12.660Z,17.29
2017-07-27T04:44:53.545Z,17.22
2017-07-27T04:45:34.446Z,17.23
2017-07-27T04:46:15.330Z,17.27
2017-07-27T04:46:56.217Z,17.33
2017-07-27T04:47:37.110Z,17.31
2017-07-27T04:48:18.001Z,17.34
2017-07-27T04:48:58.885Z,17.36
2017-07-27T04:49:39.804Z,17.26
2017-07-27T04:50:20.695Z,17.23
2017-07-27T04:51:01.602Z,17.26
2017-07-27T04:51:42.481Z,17.24
2017-07-27T04:52:23.355Z,17.26
2017-07-27T04:53:04.236Z,17.34
2017-07-27T04:53:45.117Z,17.38
2017-07-27T04:54:26.048Z,17.34
2017-07-27T04:55:06.948Z,17.36
2017-07-27T04:55:47.831Z,17.45
2017-07-27T04:56:28.723Z,17.36
2017-07-27T04:57:09.601Z,17.41
2017-07-27T04:57:50.488Z,17.49
2017-07-27T04:58:31.379Z,17.34
2017-07-27T04:59:12.265Z,17.29
2017-07-27T04:59:53.146Z,17.23
2017-07-27T05:00:34.072Z,17.23
2017-07-27T05:01:14.920Z,17.26
2017-07-27T05:01:55.802Z,17.27
2017-07-27T05:02:36.710Z,17.24
2017-07-27T05:03:17.604Z,17.27
2017-07-27T05:03:58.483Z,17.24
2017-07-27T05:04:39.393Z,17.27
2017-07-27T05:05:20.263Z,17.2
2017-07-27T05:06:01.145Z,17.09
2017-07-27T05:06:42.027Z,17.11
2017-07-27T05:07:22.914Z,17.19
2017-07-27T05:08:03.803Z,17.08
2017-07-27T05:08:44.686Z,17.15
2017-07-27T05:09:25.561Z,17.22
2017-07-27T05:10:06.451Z,17.14
2017-07-27T05:10:47.333Z,17.15
2017-07-27T05:11:28.214Z,17.14
2017-07-27T05:12:09.125Z,17.24
2017-07-27T05:12:50.020Z,17.24
2017-07-27T05:13:30.886Z,17.27
2017-07-27T05:14:11.804Z,17.24
2017-07-27T05:14:52.700Z,17.19
2017-07-27T05:15:33.587Z,17.14
2017-07-27T05:16:14.478Z,17.26
2017-07-27T05:16:55.373Z,17.23
2017-07-27T05:17:36.260Z,17.23
2017-07-27T05:18:17.154Z,17.26
2017-07-27T05:18:58.062Z,17.27
2017-07-27T05:19:38.942Z,17.22
2017-07-27T05:20:19.832Z,17.33
2017-07-27T05:21:00.719Z,17.22
2017-07-27T05:21:41.602Z,17.3
2017-07-27T05:22:22.480Z,17.41
2017-07-27T05:23:03.374Z,17.34
2017-07-27T05:23:44.257Z,17.42
2017-07-27T05:24:25.136Z,17.38
2017-07-27T05:25:06.022Z,17.36
2017-07-27T05:25:46.913Z,17.3
2017-07-27T05:26:27.796Z,17.27
2017-07-27T05:27:08.676Z,17.33
2017-07-27T05:27:49.569Z,17.41
2017-07-27T05:28:30.464Z,17.38
2017-07-27T05:29:11.364Z,17.36
2017-07-27T05:29:52.255Z,17.34
2017-07-27T05:30:33.140Z,17.33
2017-07-27T05:31:14.034Z,17.39
2017-07-27T05:31:54.948Z,17.46
2017-07-27T05:32:35.842Z,17.52
2017-07-27T05:33:16.738Z,17.64
2017-07-27T05:33:57.622Z,17.7
2017-07-27T05:34:38.508Z,17.76
2017-07-27T05:35:19.401Z,17.85
2017-07-27T05:36:00.292Z,18
2017-07-27T05:36:41.187Z,17.98
2017-07-27T05:37:22.076Z,17.92
2017-07-27T05:38:02.966Z,18.07
2017-07-27T05:38:43.893Z,18.1
2017-07-27T05:39:24.810Z,18.13
2017-07-27T05:40:05.696Z,18.01
2017-07-27T05:40:46.596Z,18.1
2017-07-27T05:41:27.501Z,18.08
2017-07-27T05:42:08.369Z,18.1
2017-07-27T05:42:49.266Z,18.1
2017-07-27T05:43:30.162Z,18.13
2017-07-27T05:44:11.049Z,18.28
2017-07-27T05:44:51.943Z,18.23
2017-07-27T05:45:32.839Z,18.22
2017-07-27T05:46:13.728Z,18.29
2017-07-27T05:46:54.617Z,18.37
2017-07-27T05:47:35.511Z,18.35
2017-07-27T05:48:16.404Z,18.25
2017-07-27T05:48:57.303Z,18.34
2017-07-27T05:49:38.203Z,18.4
2017-07-27T05:50:19.111Z,18.4
2017-07-27T05:51:00.014Z,18.44
2017-07-27T05:51:40.925Z,18.49
2017-07-27T05:52:21.792Z,18.58
2017-07-27T05:53:02.683Z,18.73
2017-07-27T05:53:43.576Z,18.78
2017-07-27T05:54:24.478Z,18.55
2017-07-27T05:55:05.359Z,18.73
2017-07-27T05:55:46.254Z,18.6
2017-07-27T05:56:27.158Z,18.59
2017-07-27T05:57:08.840Z,18.56
2017-07-27T05:58:42.869Z,18.71
2017-07-27T05:59:23.875Z,18.73
2017-07-27T06:00:04.841Z,18.75
2017-07-27T06:00:45.684Z,18.9
2017-07-27T06:01:26.580Z,18.86
2017-07-27T06:02:07.468Z,19.02
2017-07-27T06:02:48.368Z,19.07
2017-07-27T06:03:29.257Z,19.19
2017-07-27T06:04:10.137Z,19.04
2017-07-27T06:04:51.024Z,19.08
2017-07-27T06:05:31.926Z,19.11
2017-07-27T06:06:12.813Z,18.96
2017-07-27T06:06:53.713Z,19.04
2017-07-27T06:07:34.622Z,19.09
2017-07-27T06:08:15.519Z,19.21
2017-07-27T06:08:56.410Z,19.26
2017-07-27T06:09:37.306Z,19.15
2017-07-27T06:10:18.193Z,19.11
2017-07-27T06:10:59.088Z,19.27
2017-07-27T06:11:39.971Z,19.45
2017-07-27T06:12:20.867Z,19.62
2017-07-27T06:13:01.761Z,19.84
2017-07-27T06:13:42.655Z,19.92
2017-07-27T06:14:23.546Z,19.99
2017-07-27T06:15:04.436Z,20.04
2017-07-27T06:15:45.315Z,20.11
2017-07-27T06:16:26.200Z,20.21
2017-07-27T06:17:07.104Z,20.09
2017-07-27T06:17:47.997Z,20.21
2017-07-27T06:18:28.882Z,20.14
2017-07-27T06:19:09.777Z,20.06
2017-07-27T06:19:50.674Z,20.24
2017-07-27T06:20:31.573Z,20.04
2017-07-27T06:21:12.465Z,20.14
2017-07-27T06:21:53.341Z,20.13
2017-07-27T06:22:34.235Z,20.28
2017-07-27T06:23:15.140Z,20.25
2017-07-27T06:23:56.030Z,20.21
2017-07-27T06:24:36.958Z,20.31
2017-07-27T06:25:17.844Z,20.44
2017-07-27T06:25:58.723Z,20.7
2017-07-27T06:26:39.651Z,20.9
2017-07-27T06:27:20.512Z,21.02
2017-07-27T06:28:01.404Z,21.09
2017-07-27T06:28:42.312Z,21.21
2017-07-27T06:29:23.212Z,21.29
2017-07-27T06:30:04.100Z,21.42
2017-07-27T06:30:45.006Z,21.39
2017-07-27T06:31:25.887Z,21.48
2017-07-27T06:32:06.800Z,21.33
2017-07-27T06:32:47.687Z,21.06
2017-07-27T06:33:28.573Z,20.72
2017-07-27T06:34:09.479Z,20.72
2017-07-27T06:34:50.365Z,20.77
2017-07-27T06:35:31.292Z,21.14
2017-07-27T06:36:12.176Z,21.17
2017-07-27T06:36:53.067Z,20.85
2017-07-27T06:37:33.957Z,20.82
2017-07-27T06:38:14.846Z,20.85
2017-07-27T06:38:55.735Z,21.15
2017-07-27T06:39:36.639Z,21.15
2017-07-27T06:40:17.532Z,21.03
2017-07-27T06:40:58.442Z,21.05
2017-07-27T06:41:39.332Z,20.92
2017-07-27T06:42:20.229Z,20.99
2017-07-27T06:43:01.125Z,21.11
2017-07-27T06:43:42.029Z,21.64
2017-07-27T06:44:22.934Z,21.58
2017-07-27T06:45:03.837Z,21.58
2017-07-27T06:45:44.727Z,21.67
2017-07-27T06:46:25.636Z,21.99
2017-07-27T06:47:06.538Z,22.62
2017-07-27T06:47:47.435Z,22.41
2017-07-27T06:48:28.330Z,22.96
2017-07-27T06:49:09.213Z,23.71
2017-07-27T06:49:50.106Z,23.84
2017-07-27T06:50:31.007Z,23.12
2017-07-27T06:51:11.894Z,23
2017-07-27T06:51:52.790Z,23.44
2017-07-27T06:52:33.692Z,23.92
2017-07-27T06:53:14.583Z,24.61
2017-07-27T06:53:55.489Z,24.3
2017-07-27T06:54:36.365Z,23.81
2017-07-27T06:55:17.250Z,23.84
2017-07-27T06:55:58.170Z,23.13
2017-07-27T06:56:39.053Z,22.28
2017-07-27T06:57:20.048Z,21.85
2017-07-27T06:59:13.802Z,22.11
2017-07-27T06:59:54.700Z,22.33
2017-07-27T07:01:22.852Z,22.07
2017-07-27T07:02:03.731Z,21.62
2017-07-27T07:02:44.620Z,21.7
2017-07-27T07:03:25.537Z,22.17
2017-07-27T07:04:06.439Z,22.48
2017-07-27T07:04:47.323Z,22.51
2017-07-27T07:05:28.235Z,23.25
2017-07-27T07:06:09.228Z,23.73
2017-07-27T07:06:50.199Z,24.18
2017-07-27T07:07:31.193Z,24.45
2017-07-27T07:08:12.204Z,24.58
2017-07-27T07:08:53.169Z,24.73
2017-07-27T07:09:34.087Z,25.03
2017-07-27T07:10:15.044Z,25.08
2017-07-27T07:10:55.993Z,25.1
2017-07-27T07:11:36.928Z,25.22
2017-07-27T07:12:17.800Z,25.22
2017-07-27T07:12:58.774Z,25.48
2017-07-27T07:13:39.773Z,24.18
2017-07-27T07:14:20.727Z,23.47
2017-07-27T07:15:01.724Z,23.1
2017-07-27T07:15:42.613Z,22.78
2017-07-27T07:16:23.561Z,23.41
2017-07-27T07:17:51.762Z,24.21
2017-07-27T07:18:32.737Z,23
2017-07-27T07:19:13.663Z,22.44
2017-07-27T07:19:54.589Z,22.51
2017-07-27T07:20:35.583Z,21.67
2017-07-27T07:21:16.566Z,21.35
2017-07-27T07:21:57.567Z,21.46
2017-07-27T07:22:38.521Z,21.82
2017-07-27T07:23:19.457Z,22.13
2017-07-27T07:24:00.412Z,22.94
2017-07-27T07:24:41.401Z,23.24
2017-07-27T07:25:22.356Z,23.1
2017-07-27T07:26:03.298Z,23.41
2017-07-27T07:26:44.273Z,23.24
2017-07-27T07:27:25.203Z,23.17
2017-07-27T07:28:06.123Z,22.76
2017-07-27T07:28:47.068Z,22.99
2017-07-27T07:29:27.980Z,23.54
2017-07-27T07:30:08.921Z,23.88
2017-07-27T07:30:49.852Z,24.2
2017-07-27T07:31:30.776Z,23.84
2017-07-27T07:33:24.563Z,22.75
2017-07-27T07:34:05.522Z,22.7
2017-07-27T07:34:46.433Z,22.53
2017-07-27T07:35:27.411Z,22.02
2017-07-27T07:36:08.342Z,22.53
2017-07-27T07:36:49.284Z,23
2017-07-27T07:37:30.212Z,23.8
2017-07-27T07:38:11.224Z,24.3
2017-07-27T07:38:52.187Z,24.93
2017-07-27T07:39:33.219Z,24.8
2017-07-27T07:40:14.152Z,24.51
2017-07-27T07:40:55.069Z,25.03
2017-07-27T07:41:36.037Z,24.86
2017-07-27T07:42:17.016Z,24.77
2017-07-27T07:42:57.955Z,24.61
2017-07-27T07:43:38.925Z,24.38
2017-07-27T07:44:19.924Z,24.2
2017-07-27T07:45:00.876Z,23.98
2017-07-27T07:45:41.840Z,23.91
2017-07-27T07:46:22.820Z,24.48
2017-07-27T07:47:03.843Z,24.96
2017-07-27T07:47:44.799Z,25.7
2017-07-27T07:48:25.805Z,25.25
2017-07-27T07:49:06.780Z,25.26
2017-07-27T07:49:47.774Z,25.13
2017-07-27T07:50:28.655Z,25.8
2017-07-27T07:51:09.564Z,25.87
2017-07-27T07:51:50.464Z,26.48
2017-07-27T07:52:31.348Z,26.85
2017-07-27T07:53:12.254Z,26.83
2017-07-27T07:55:05.942Z,25.91
2017-07-27T07:55:46.837Z,25.28
2017-07-27T07:56:27.720Z,25.22
2017-07-27T07:57:08.615Z,25.14
2017-07-27T07:57:49.538Z,25.53
2017-07-27T07:58:30.435Z,26.43
2017-07-27T07:59:11.315Z,26.9
2017-07-27T07:59:52.216Z,27.12
2017-07-27T08:00:33.102Z,27.22
2017-07-27T08:01:13.989Z,27.48
2017-07-27T08:01:54.891Z,27.64
2017-07-27T08:02:35.769Z,27.7
2017-07-27T08:03:16.661Z,27.8
2017-07-27T08:03:57.556Z,27.8
2017-07-27T08:04:38.458Z,27.98
2017-07-27T08:05:19.348Z,28.05
2017-07-27T08:06:00.255Z,28.15
2017-07-27T08:06:41.157Z,28.37
2017-07-27T08:07:22.055Z,28.29
2017-07-27T08:08:02.962Z,28.11
2017-07-27T08:08:43.847Z,28.23
2017-07-27T08:09:24.739Z,28.29
2017-07-27T08:10:05.636Z,28.39
2017-07-27T08:10:46.562Z,28.62
2017-07-27T08:11:27.460Z,28.89
2017-07-27T08:12:08.337Z,29.01
2017-07-27T08:12:49.230Z,28.12
2017-07-27T08:13:30.119Z,27.29
2017-07-27T08:14:11.003Z,27.74
2017-07-27T08:14:51.946Z,28.38
2017-07-27T08:15:32.812Z,28.2
2017-07-27T08:16:13.705Z,28.52
2017-07-27T08:16:54.610Z,28.94
2017-07-27T08:17:35.541Z,29.14
2017-07-27T08:18:16.441Z,29.24
2017-07-27T08:18:57.372Z,29.05
2017-07-27T08:19:38.258Z,28.49
2017-07-27T08:20:19.147Z,28.35
2017-07-27T08:21:00.058Z,27.49
2017-07-27T08:21:40.938Z,26.95
2017-07-27T08:22:21.829Z,26.33
2017-07-27T08:23:02.739Z,26.33
2017-07-27T08:23:43.645Z,25.99
2017-07-27T08:24:24.536Z,25.9
2017-07-27T08:25:05.433Z,25.4
2017-07-27T08:25:46.352Z,25.43
2017-07-27T08:26:27.247Z,25.29
2017-07-27T08:27:08.200Z,25.54
2017-07-27T08:27:49.100Z,26.6
2017-07-27T08:28:30.008Z,27.3
2017-07-27T08:29:10.912Z,28.07
2017-07-27T08:29:51.816Z,28.56
2017-07-27T08:30:32.769Z,29.07
2017-07-27T08:31:13.678Z,27.8
2017-07-27T08:31:54.608Z,27.48
2017-07-27T08:32:35.505Z,27.1
2017-07-27T08:33:16.420Z,25.84
2017-07-27T08:33:57.314Z,25.55
2017-07-27T08:34:38.226Z,25.17
2017-07-27T08:35:19.123Z,25.28
2017-07-27T08:36:00.028Z,25.87
2017-07-27T08:36:40.943Z,25.63
2017-07-27T08:37:21.849Z,25.21
2017-07-27T08:38:02.758Z,25.13
2017-07-27T08:38:43.681Z,25.14
2017-07-27T08:39:24.567Z,25.29
2017-07-27T08:40:05.460Z,25.59
2017-07-27T08:40:46.373Z,26.03
2017-07-27T08:41:27.270Z,26.92
2017-07-27T08:42:08.157Z,27.29
2017-07-27T08:42:49.067Z,27.32
2017-07-27T08:43:30.006Z,27.21
2017-07-27T08:44:10.916Z,26.66
2017-07-27T08:44:52.112Z,26.25
2017-07-27T08:45:33.010Z,27.52
2017-07-27T08:46:13.898Z,28.69
2017-07-27T08:46:54.789Z,29.54
2017-07-27T08:47:35.690Z,29.73
2017-07-27T08:48:16.582Z,28.89
2017-07-27T08:48:57.495Z,27.71
2017-07-27T08:49:38.387Z,27.82
2017-07-27T08:50:19.287Z,27.54
2017-07-27T08:51:00.175Z,26.84
2017-07-27T08:51:41.076Z,27.55
2017-07-27T08:52:21.983Z,28.11
2017-07-27T08:53:02.888Z,28.48
2017-07-27T08:53:43.790Z,27.86
2017-07-27T08:54:24.712Z,28.01
2017-07-27T08:55:05.621Z,29.14
2017-07-27T08:55:46.518Z,29.36
2017-07-27T08:56:27.426Z,28.45
2017-07-27T08:57:08.316Z,29.5
2017-07-27T08:57:49.221Z,30.47
2017-07-27T08:58:30.122Z,31.28
2017-07-27T08:59:11.017Z,31.71
2017-07-27T08:59:51.907Z,31.52
2017-07-27T09:00:32.807Z,30.39
2017-07-27T09:01:13.694Z,30.08
2017-07-27T09:01:54.594Z,29.14
2017-07-27T09:02:35.484Z,29.12
2017-07-27T09:04:09.231Z,29.41
2017-07-27T09:04:50.128Z,29.76
2017-07-27T09:05:31.059Z,29.22
2017-07-27T09:06:11.954Z,30.25
2017-07-27T09:06:52.924Z,30.32
2017-07-27T09:07:33.834Z,29.73
2017-07-27T09:08:14.743Z,28.64
2017-07-27T09:08:55.644Z,27.21
2017-07-27T09:09:36.557Z,28.45
2017-07-27T09:10:17.463Z,29.38
2017-07-27T09:10:58.360Z,29.56
2017-07-27T09:11:39.266Z,28.47
2017-07-27T09:12:20.166Z,28.64
2017-07-27T09:13:01.079Z,28.08
2017-07-27T09:13:41.979Z,27.65
2017-07-27T09:14:22.908Z,26.37
2017-07-27T09:15:03.822Z,27.4
2017-07-27T09:15:44.729Z,28.27
2017-07-27T09:16:25.656Z,29.14
2017-07-27T09:17:06.580Z,29.42
2017-07-27T09:17:47.478Z,29.66